Impacts METAR Board
IDs:

KGTR - Golden Triangle Arpt, MS, US

Updated at: 2100 UTC 02 Oct 2022
Potential Impact None Slight Moderate High
Time 02/09Z 02/10Z 02/11Z 02/12Z 02/13Z 02/14Z 02/15Z 02/16Z 02/17Z 02/18Z 02/19Z 02/20Z 02/21Z
Temp49 50 49 47 52 59 66 71 75 78 80 81 82
Dewpt46 46 45 45 47 50 50 50 51 50 50 50 50
Altim30.06 30.07 30.08 30.10 30.12 30.14 30.15 30.14 30.13 30.11 30.09 30.07 30.06
VIS10 10 10 10 10 10 10 10 10 10 10 10 10
CIG-- -- -- -- -- -- -- -- -- -- -- -- --
CoverCLRCLRCLRCLRCLRCLRCLRCLRCLRCLRCLRCLRCLR
FltCatVFRVFRVFRVFRVFRVFRVFRVFRVFRVFRVFRVFRVFR
WX--------------------------
WDir031032030003603503402035034034010
WSpd0 3 4 3 0 6 10 9 11 9 12 9 14
WGst-- -- -- -- -- -- -- -- -- -- -- -- --
Raw hourly METARs
KGTR 020856Z AUTO 00000KT 10SM CLR 09/08 A3006 RMK AO2 SLP184 T00940078 51003
KGTR 020956Z AUTO 31003KT 10SM CLR 10/08 A3007 RMK AO2 SLP188 T01000078
KGTR 021056Z 32004KT 10SM CLR 09/07 A3008 RMK AO2 SLP193 T00940072
KGTR 021156Z 30003KT 10SM CLR 08/07 A3010 RMK AO2 SLP200 T00830072 10122 20078 53015
KGTR 021256Z 00000KT 10SM CLR 11/08 A3012 RMK AO2 SLP207 T01110083
KGTR 021356Z 36006KT 10SM CLR 15/10 A3014 RMK AO2 SLP212 T01500100
KGTR 021456Z 35010KT 10SM CLR 19/10 A3015 RMK AO2 SLP215 T01890100 51015
KGTR 021556Z 34009KT 10SM CLR 22/10 A3014 RMK AO2 SLP214 T02170100
KGTR 021656Z 02011KT 10SM CLR 24/11 A3013 RMK AO2 SLP208 T02390106
KGTR 021756Z 35009KT 10SM CLR 26/10 A3011 RMK AO2 SLP203 T02560100 10256 20078 58011
KGTR 021856Z 34012KT 10SM CLR 27/10 A3009 RMK AO2 SLP194 T02670100
KGTR 021956Z 34009KT 10SM CLR 27/10 A3007 RMK AO2 SLP188 T02720100
KGTR 022056Z 01014KT 10SM CLR 28/10 A3006 RMK AO2 SLP186 T02780100 56016



Page loaded:  21:28 UTC  |   02:28 PM Pacific  |   03:28 PM Mountain  |   04:28 PM Central  |   05:28 PM Eastern

 

ADVISORIES

FORECASTS

FORECASTS

OBSERVATIONS

USER TOOLS

ABOUT US